sensor_id;sensor_type;location;lat;lon;timestamp;pressure;altitude;pressure_sealevel;temperature;humidity
64158;BME280;50449;51.528;5.076;2023-04-22T00:01:39;100688.22;;;18.07;46.74
64158;BME280;50449;51.528;5.076;2023-04-22T00:04:05;100692.03;;;18.06;47.01
64158;BME280;50449;51.528;5.076;2023-04-22T00:06:31;100688.28;;;18.02;46.43
64158;BME280;50449;51.528;5.076;2023-04-22T00:08:56;100682.31;;;18.00;46.82
64158;BME280;50449;51.528;5.076;2023-04-22T00:11:22;100680.16;;;17.97;47.05
64158;BME280;50449;51.528;5.076;2023-04-22T00:13:47;100678.84;;;17.94;46.66
64158;BME280;50449;51.528;5.076;2023-04-22T00:16:14;100680.22;;;17.92;47.08
64158;BME280;50449;51.528;5.076;2023-04-22T00:18:39;100672.59;;;17.89;46.85
64158;BME280;50449;51.528;5.076;2023-04-22T00:21:05;100680.31;;;17.87;47.15
64158;BME280;50449;51.528;5.076;2023-04-22T00:23:32;100678.97;;;17.84;46.70
64158;BME280;50449;51.528;5.076;2023-04-22T00:25:57;100680.38;;;17.82;46.75
64158;BME280;50449;51.528;5.076;2023-04-22T00:28:22;100673.53;;;17.79;47.00
64158;BME280;50449;51.528;5.076;2023-04-22T00:30:48;100673.28;;;17.76;46.77
64158;BME280;50449;51.528;5.076;2023-04-22T00:33:13;100679.06;;;17.74;46.99
64158;BME280;50449;51.528;5.076;2023-04-22T00:35:39;100683.19;;;17.71;46.75
64158;BME280;50449;51.528;5.076;2023-04-22T00:38:04;100690.06;;;17.69;47.11
64158;BME280;50449;51.528;5.076;2023-04-22T00:40:30;100686.78;;;17.67;46.67
64158;BME280;50449;51.528;5.076;2023-04-22T00:42:55;100690.94;;;17.64;46.83
64158;BME280;50449;51.528;5.076;2023-04-22T00:45:21;100694.22;;;17.61;46.61
64158;BME280;50449;51.528;5.076;2023-04-22T00:47:47;100697.25;;;17.60;47.35
64158;BME280;50449;51.528;5.076;2023-04-22T00:50:13;100695.13;;;17.57;47.21
64158;BME280;50449;51.528;5.076;2023-04-22T00:52:39;100699.25;;;17.54;46.76
64158;BME280;50449;51.528;5.076;2023-04-22T00:55:05;100689.72;;;17.51;46.91
64158;BME280;50449;51.528;5.076;2023-04-22T00:57:31;100693.00;;;17.48;46.80
64158;BME280;50449;51.528;5.076;2023-04-22T00:59:58;100691.38;;;17.47;47.10
64158;BME280;50449;51.528;5.076;2023-04-22T01:02:23;100700.16;;;17.44;46.80
64158;BME280;50449;51.528;5.076;2023-04-22T01:04:49;100699.63;;;17.42;46.68
64158;BME280;50449;51.528;5.076;2023-04-22T01:07:14;100703.75;;;17.40;47.02
64158;BME280;50449;51.528;5.076;2023-04-22T01:09:40;100709.50;;;17.38;46.94
64158;BME280;50449;51.528;5.076;2023-04-22T01:12:05;100712.81;;;17.35;46.94
64158;BME280;50449;51.528;5.076;2023-04-22T01:14:31;100706.81;;;17.33;46.84
64158;BME280;50449;51.528;5.076;2023-04-22T01:16:56;100711.75;;;17.31;46.98
64158;BME280;50449;51.528;5.076;2023-04-22T01:19:22;100702.22;;;17.28;47.18
64158;BME280;50449;51.528;5.076;2023-04-22T01:21:50;100700.88;;;17.26;47.17
64158;BME280;50449;51.528;5.076;2023-04-22T01:24:15;100692.47;;;17.22;46.71
64158;BME280;50449;51.528;5.076;2023-04-22T01:26:41;100699.31;;;17.20;47.14
64158;BME280;50449;51.528;5.076;2023-04-22T01:29:07;100696.84;;;17.18;47.03
64158;BME280;50449;51.528;5.076;2023-04-22T01:31:33;100709.16;;;17.16;46.80
64158;BME280;50449;51.528;5.076;2023-04-22T01:33:58;100696.91;;;17.13;47.17
64158;BME280;50449;51.528;5.076;2023-04-22T01:36:24;100698.03;;;17.12;46.95
64158;BME280;50449;51.528;5.076;2023-04-22T01:38:50;100692.03;;;17.10;47.08
64158;BME280;50449;51.528;5.076;2023-04-22T01:41:15;100698.88;;;17.07;47.04
64158;BME280;50449;51.528;5.076;2023-04-22T01:43:41;100700.28;;;17.05;47.27
64158;BME280;50449;51.528;5.076;2023-04-22T01:46:08;100700.56;;;17.03;46.83
64158;BME280;50449;51.528;5.076;2023-04-22T01:48:34;100695.38;;;17.02;46.67
64158;BME280;50449;51.528;5.076;2023-04-22T01:51:00;100689.41;;;17.00;46.82
64158;BME280;50449;51.528;5.076;2023-04-22T01:53:26;100681.78;;;16.97;47.20
64158;BME280;50449;51.528;5.076;2023-04-22T01:55:51;100680.47;;;16.94;47.23
64158;BME280;50449;51.528;5.076;2023-04-22T01:58:17;100686.19;;;16.93;46.97
64158;BME280;50449;51.528;5.076;2023-04-22T02:00:42;100683.22;;;16.89;47.21
64158;BME280;50449;51.528;5.076;2023-04-22T02:03:08;100692.50;;;16.88;47.26
64158;BME280;50449;51.528;5.076;2023-04-22T02:05:33;100687.63;;;16.85;47.15
64158;BME280;50449;51.528;5.076;2023-04-22T02:07:58;100690.66;;;16.83;46.88
64158;BME280;50449;51.528;5.076;2023-04-22T02:10:24;100686.28;;;16.82;46.87
64158;BME280;50449;51.528;5.076;2023-04-22T02:12:49;100682.22;;;16.80;47.02
64158;BME280;50449;51.528;5.076;2023-04-22T02:15:15;100675.38;;;16.77;47.05
64158;BME280;50449;51.528;5.076;2023-04-22T02:17:41;100674.84;;;16.75;47.24
64158;BME280;50449;51.528;5.076;2023-04-22T02:20:07;100677.88;;;16.74;47.27
64158;BME280;50449;51.528;5.076;2023-04-22T02:22:35;100668.34;;;16.71;46.92
64158;BME280;50449;51.528;5.076;2023-04-22T02:25:01;100667.81;;;16.69;46.95
64158;BME280;50449;51.528;5.076;2023-04-22T02:27:27;100660.22;;;16.66;47.27
64158;BME280;50449;51.528;5.076;2023-04-22T02:29:53;100662.94;;;16.66;47.13
64158;BME280;50449;51.528;5.076;2023-04-22T02:32:18;100661.59;;;16.63;47.26
64158;BME280;50449;51.528;5.076;2023-04-22T02:34:43;100662.16;;;16.60;47.35
64158;BME280;50449;51.528;5.076;2023-04-22T02:37:09;100666.78;;;16.60;47.08
64158;BME280;50449;51.528;5.076;2023-04-22T02:39:34;100659.19;;;16.57;47.01
64158;BME280;50449;51.528;5.076;2023-04-22T02:41:59;100659.44;;;16.55;47.47
64158;BME280;50449;51.528;5.076;2023-04-22T02:44:25;100657.03;;;16.54;47.18
64158;BME280;50449;51.528;5.076;2023-04-22T02:46:50;100653.78;;;16.52;47.25
64158;BME280;50449;51.528;5.076;2023-04-22T02:49:16;100659.50;;;16.50;47.39
64158;BME280;50449;51.528;5.076;2023-04-22T02:51:41;100659.78;;;16.49;47.40
64158;BME280;50449;51.528;5.076;2023-04-22T02:54:07;100660.88;;;16.48;47.16
64158;BME280;50449;51.528;5.076;2023-04-22T02:56:32;100665.81;;;16.46;47.15
64158;BME280;50449;51.528;5.076;2023-04-22T02:58:58;100661.44;;;16.44;47.19
64158;BME280;50449;51.528;5.076;2023-04-22T03:01:23;100659.31;;;16.41;47.45
64158;BME280;50449;51.528;5.076;2023-04-22T03:03:48;100661.22;;;16.41;47.11
64158;BME280;50449;51.528;5.076;2023-04-22T03:06:14;100655.22;;;16.39;47.37
64158;BME280;50449;51.528;5.076;2023-04-22T03:08:39;100645.72;;;16.36;47.28
64158;BME280;50449;51.528;5.076;2023-04-22T03:11:04;100647.63;;;16.36;47.35
64158;BME280;50449;51.528;5.076;2023-04-22T03:13:30;100645.16;;;16.34;47.18
64158;BME280;50449;51.528;5.076;2023-04-22T03:15:55;100642.72;;;16.33;47.62
64158;BME280;50449;51.528;5.076;2023-04-22T03:18:21;100639.50;;;16.31;47.61
64158;BME280;50449;51.528;5.076;2023-04-22T03:20:46;100635.13;;;16.30;47.42
64158;BME280;50449;51.528;5.076;2023-04-22T03:23:11;100630.78;;;16.29;47.51
64158;BME280;50449;51.528;5.076;2023-04-22T03:25:37;100630.25;;;16.27;47.30
64158;BME280;50449;51.528;5.076;2023-04-22T03:28:02;100627.78;;;16.25;47.31
64158;BME280;50449;51.528;5.076;2023-04-22T03:30:28;100621.81;;;16.23;47.38
64158;BME280;50449;51.528;5.076;2023-04-22T03:32:55;100624.00;;;16.21;47.62
64158;BME280;50449;51.528;5.076;2023-04-22T03:35:20;100614.19;;;16.20;47.13
64158;BME280;50449;51.528;5.076;2023-04-22T03:37:45;100615.31;;;16.19;47.50
64158;BME280;50449;51.528;5.076;2023-04-22T03:40:11;100611.22;;;16.16;47.56
64158;BME280;50449;51.528;5.076;2023-04-22T03:42:36;100599.53;;;16.16;47.42
64158;BME280;50449;51.528;5.076;2023-04-22T03:45:02;100595.16;;;16.15;47.63
64158;BME280;50449;51.528;5.076;2023-04-22T03:47:27;100600.09;;;16.13;47.37
64158;BME280;50449;51.528;5.076;2023-04-22T03:49:53;100594.91;;;16.11;47.41
64158;BME280;50449;51.528;5.076;2023-04-22T03:52:18;100591.66;;;16.09;47.64
64158;BME280;50449;51.528;5.076;2023-04-22T03:54:43;100585.41;;;16.09;47.55
64158;BME280;50449;51.528;5.076;2023-04-22T03:57:09;100577.50;;;16.07;47.49
64158;BME280;50449;51.528;5.076;2023-04-22T03:59:34;100581.34;;;16.06;47.70
64158;BME280;50449;51.528;5.076;2023-04-22T04:02:00;100587.06;;;16.05;47.62
64158;BME280;50449;51.528;5.076;2023-04-22T04:04:25;100588.16;;;16.04;47.55
64158;BME280;50449;51.528;5.076;2023-04-22T04:06:52;100587.34;;;16.03;47.29
64158;BME280;50449;51.528;5.076;2023-04-22T04:09:17;100586.00;;;16.00;47.60
64158;BME280;50449;51.528;5.076;2023-04-22T04:11:42;100596.06;;;16.00;47.67
64158;BME280;50449;51.528;5.076;2023-04-22T04:14:08;100588.19;;;15.98;47.28
64158;BME280;50449;51.528;5.076;2023-04-22T04:16:33;100577.56;;;15.97;47.63
64158;BME280;50449;51.528;5.076;2023-04-22T04:18:59;100577.88;;;15.95;47.57
64158;BME280;50449;51.528;5.076;2023-04-22T04:21:24;100572.69;;;15.94;47.67
64158;BME280;50449;51.528;5.076;2023-04-22T04:23:51;100572.97;;;15.92;47.75
64158;BME280;50449;51.528;5.076;2023-04-22T04:26:16;100568.63;;;15.91;47.46
64158;BME280;50449;51.528;5.076;2023-04-22T04:28:42;100577.06;;;15.90;47.53
64158;BME280;50449;51.528;5.076;2023-04-22T04:31:07;100569.19;;;15.88;47.70
64158;BME280;50449;51.528;5.076;2023-04-22T04:33:33;100566.75;;;15.87;47.45
64158;BME280;50449;51.528;5.076;2023-04-22T04:35:58;100567.03;;;15.85;47.71
64158;BME280;50449;51.528;5.076;2023-04-22T04:38:24;100559.13;;;15.84;47.58
64158;BME280;50449;51.528;5.076;2023-04-22T04:40:50;100567.59;;;15.82;47.70
64158;BME280;50449;51.528;5.076;2023-04-22T04:43:16;100568.69;;;15.81;47.61
64158;BME280;50449;51.528;5.076;2023-04-22T04:45:42;100570.59;;;15.81;47.61
64158;BME280;50449;51.528;5.076;2023-04-22T04:48:14;100561.09;;;15.78;47.72
64158;BME280;50449;51.528;5.076;2023-04-22T04:50:43;100566.81;;;15.76;47.68
64158;BME280;50449;51.528;5.076;2023-04-22T04:53:10;100573.38;;;15.75;47.77
64158;BME280;50449;51.528;5.076;2023-04-22T04:55:36;100581.81;;;15.74;47.71
64158;BME280;50449;51.528;5.076;2023-04-22T04:58:02;100578.28;;;15.73;47.55
64158;BME280;50449;51.528;5.076;2023-04-22T05:00:27;100581.25;;;15.72;47.56
64158;BME280;50449;51.528;5.076;2023-04-22T05:02:53;100583.19;;;15.71;47.53
64158;BME280;50449;51.528;5.076;2023-04-22T05:05:18;100575.28;;;15.70;47.67
64158;BME280;50449;51.528;5.076;2023-04-22T05:07:46;100571.75;;;15.69;47.94
64158;BME280;50449;51.528;5.076;2023-04-22T05:10:12;100566.84;;;15.66;47.49
64158;BME280;50449;51.528;5.076;2023-04-22T05:12:37;100566.03;;;15.66;47.62
64158;BME280;50449;51.528;5.076;2023-04-22T05:15:03;100576.13;;;15.65;47.78
64158;BME280;50449;51.528;5.076;2023-04-22T05:17:29;100585.66;;;15.63;47.50
64158;BME280;50449;51.528;5.076;2023-04-22T05:19:54;100579.38;;;15.62;47.71
64158;BME280;50449;51.528;5.076;2023-04-22T05:22:20;100575.03;;;15.61;47.79
64158;BME280;50449;51.528;5.076;2023-04-22T05:24:45;100581.59;;;15.60;47.56
64158;BME280;50449;51.528;5.076;2023-04-22T05:27:11;100578.03;;;15.59;47.72
64158;BME280;50449;51.528;5.076;2023-04-22T05:29:37;100573.94;;;15.57;47.53
64158;BME280;50449;51.528;5.076;2023-04-22T05:32:02;100578.59;;;15.56;47.77
64158;BME280;50449;51.528;5.076;2023-04-22T05:34:27;100577.78;;;15.56;47.82
64158;BME280;50449;51.528;5.076;2023-04-22T05:36:53;100573.44;;;15.55;47.52
64158;BME280;50449;51.528;5.076;2023-04-22T05:39:19;100576.44;;;15.53;47.54
64158;BME280;50449;51.528;5.076;2023-04-22T05:41:44;100575.63;;;15.53;47.40
64158;BME280;50449;51.528;5.076;2023-04-22T05:44:10;100567.72;;;15.51;47.83
64158;BME280;50449;51.528;5.076;2023-04-22T05:46:35;100569.66;;;15.51;47.55
64158;BME280;50449;51.528;5.076;2023-04-22T05:49:01;100564.47;;;15.49;47.96
64158;BME280;50449;51.528;5.076;2023-04-22T05:51:26;100566.38;;;15.49;47.65
64158;BME280;50449;51.528;5.076;2023-04-22T05:53:51;100572.94;;;15.48;47.59
64158;BME280;50449;51.528;5.076;2023-04-22T05:56:17;100558.50;;;15.47;47.81
64158;BME280;50449;51.528;5.076;2023-04-22T05:58:42;100560.41;;;15.47;47.74
64158;BME280;50449;51.528;5.076;2023-04-22T06:01:08;100567.75;;;15.46;47.80
64158;BME280;50449;51.528;5.076;2023-04-22T06:03:33;100558.78;;;15.46;47.88
64158;BME280;50449;51.528;5.076;2023-04-22T06:05:59;100553.59;;;15.44;47.85
64158;BME280;50449;51.528;5.076;2023-04-22T06:08:25;100555.53;;;15.44;47.76
64158;BME280;50449;51.528;5.076;2023-04-22T06:10:51;100557.44;;;15.43;47.70
64158;BME280;50449;51.528;5.076;2023-04-22T06:13:16;100555.81;;;15.42;47.84
64158;BME280;50449;51.528;5.076;2023-04-22T06:15:42;100551.44;;;15.41;47.90
64158;BME280;50449;51.528;5.076;2023-04-22T06:18:07;100552.25;;;15.42;48.03
64158;BME280;50449;51.528;5.076;2023-04-22T06:20:32;100547.91;;;15.41;47.49
64158;BME280;50449;51.528;5.076;2023-04-22T06:23:00;100553.91;;;15.43;47.63
64158;BME280;50449;51.528;5.076;2023-04-22T06:25:25;100553.91;;;15.43;47.93
64158;BME280;50449;51.528;5.076;2023-04-22T06:27:50;100548.72;;;15.41;47.83
64158;BME280;50449;51.528;5.076;2023-04-22T06:30:16;100559.34;;;15.43;47.82
64158;BME280;50449;51.528;5.076;2023-04-22T06:32:41;100546.00;;;15.41;47.92
64158;BME280;50449;51.528;5.076;2023-04-22T06:35:07;100548.72;;;15.41;47.76
64158;BME280;50449;51.528;5.076;2023-04-22T06:37:32;100543.28;;;15.41;47.91
64158;BME280;50449;51.528;5.076;2023-04-22T06:39:58;100535.94;;;15.42;47.64
64158;BME280;50449;51.528;5.076;2023-04-22T06:42:23;100536.47;;;15.44;47.73
64158;BME280;50449;51.528;5.076;2023-04-22T06:44:48;100533.75;;;15.44;47.84
64158;BME280;50449;51.528;5.076;2023-04-22T06:47:14;100528.31;;;15.44;47.73
64158;BME280;50449;51.528;5.076;2023-04-22T06:49:39;100533.75;;;15.44;47.64
64158;BME280;50449;51.528;5.076;2023-04-22T06:52:05;100534.56;;;15.44;47.53
64158;BME280;50449;51.528;5.076;2023-04-22T06:54:30;100529.09;;;15.44;47.79
64158;BME280;50449;51.528;5.076;2023-04-22T06:56:56;100546.28;;;15.45;47.69
64158;BME280;50449;51.528;5.076;2023-04-22T06:59:22;100551.41;;;15.46;47.84
64158;BME280;50449;51.528;5.076;2023-04-22T07:01:47;100545.97;;;15.46;47.58
64158;BME280;50449;51.528;5.076;2023-04-22T07:04:13;100548.69;;;15.46;47.65
64158;BME280;50449;51.528;5.076;2023-04-22T07:06:38;100540.53;;;15.46;47.95
64158;BME280;50449;51.528;5.076;2023-04-22T07:09:04;100540.53;;;15.46;47.69
64158;BME280;50449;51.528;5.076;2023-04-22T07:11:29;100536.72;;;15.47;47.83
64158;BME280;50449;51.528;5.076;2023-04-22T07:13:56;100531.28;;;15.47;47.78
64158;BME280;50449;51.528;5.076;2023-04-22T07:16:21;100536.72;;;15.47;47.82
64158;BME280;50449;51.528;5.076;2023-04-22T07:18:47;100536.44;;;15.49;47.98
64158;BME280;50449;51.528;5.076;2023-04-22T07:21:13;100543.53;;;15.50;48.16
64158;BME280;50449;51.528;5.076;2023-04-22T07:23:38;100548.66;;;15.51;47.84
64158;BME280;50449;51.528;5.076;2023-04-22T07:26:03;100542.16;;;15.52;48.27
64158;BME280;50449;51.528;5.076;2023-04-22T07:28:29;100533.69;;;15.54;47.98
64158;BME280;50449;51.528;5.076;2023-04-22T07:30:55;100545.91;;;15.56;48.08
64158;BME280;50449;51.528;5.076;2023-04-22T07:33:20;100545.66;;;15.58;47.80
64158;BME280;50449;51.528;5.076;2023-04-22T07:35:46;100549.72;;;15.61;48.15
64158;BME280;50449;51.528;5.076;2023-04-22T07:38:15;100552.97;;;15.63;48.26
64158;BME280;50449;51.528;5.076;2023-04-22T07:40:40;100549.69;;;15.66;47.88
64158;BME280;50449;51.528;5.076;2023-04-22T07:43:06;100525.72;;;15.68;48.04
64158;BME280;50449;51.528;5.076;2023-04-22T07:45:32;100519.75;;;15.71;47.99
64158;BME280;50449;51.528;5.076;2023-04-22T07:47:57;100519.16;;;15.74;48.45
64158;BME280;50449;51.528;5.076;2023-04-22T07:50:23;100514.25;;;15.76;48.46
64158;BME280;50449;51.528;5.076;2023-04-22T07:52:48;100512.88;;;15.78;48.57
64158;BME280;50449;51.528;5.076;2023-04-22T07:55:14;100509.03;;;15.79;48.67
64158;BME280;50449;51.528;5.076;2023-04-22T07:57:39;100510.38;;;15.82;48.89
64158;BME280;50449;51.528;5.076;2023-04-22T08:00:06;100514.47;;;15.85;48.70
64158;BME280;50449;51.528;5.076;2023-04-22T08:02:32;100507.34;;;15.89;48.79
64158;BME280;50449;51.528;5.076;2023-04-22T08:04:57;100514.94;;;15.92;48.71
64158;BME280;50449;51.528;5.076;2023-04-22T08:07:23;100512.50;;;15.95;49.12
64158;BME280;50449;51.528;5.076;2023-04-22T08:09:49;100508.38;;;15.98;48.82
64158;BME280;50449;51.528;5.076;2023-04-22T08:12:14;100507.50;;;16.02;49.16
64158;BME280;50449;51.528;5.076;2023-04-22T08:14:40;100497.97;;;16.05;49.32
64158;BME280;50449;51.528;5.076;2023-04-22T08:17:05;100497.94;;;16.10;49.04
64158;BME280;50449;51.528;5.076;2023-04-22T08:19:31;100490.00;;;16.14;49.32
64158;BME280;50449;51.528;5.076;2023-04-22T08:21:56;100482.03;;;16.17;49.30
64158;BME280;50449;51.528;5.076;2023-04-22T08:24:22;100483.13;;;16.21;49.60
64158;BME280;50449;51.528;5.076;2023-04-22T08:26:47;100485.78;;;16.27;49.59
64158;BME280;50449;51.528;5.076;2023-04-22T08:29:13;100488.75;;;16.30;49.70
64158;BME280;50449;51.528;5.076;2023-04-22T08:31:38;100476.16;;;16.34;49.27
64158;BME280;50449;51.528;5.076;2023-04-22T08:34:03;100467.94;;;16.39;49.38
64158;BME280;50449;51.528;5.076;2023-04-22T08:36:29;100465.16;;;16.44;49.69
64158;BME280;50449;51.528;5.076;2023-04-22T08:38:55;100471.38;;;16.50;49.99
64158;BME280;50449;51.528;5.076;2023-04-22T08:41:21;100461.25;;;16.56;49.76
64158;BME280;50449;51.528;5.076;2023-04-22T08:43:49;100453.50;;;16.63;49.54
64158;BME280;50449;51.528;5.076;2023-04-22T08:46:16;100436.28;;;16.67;49.59
64158;BME280;50449;51.528;5.076;2023-04-22T08:48:46;100431.59;;;16.73;49.63
64158;BME280;50449;51.528;5.076;2023-04-22T08:51:14;100433.16;;;16.79;49.63
64158;BME280;50449;51.528;5.076;2023-04-22T08:53:39;100435.84;;;16.84;49.77
64158;BME280;50449;51.528;5.076;2023-04-22T08:56:05;100429.50;;;16.89;49.86
64158;BME280;50449;51.528;5.076;2023-04-22T08:58:32;100425.91;;;16.94;50.19
64158;BME280;50449;51.528;5.076;2023-04-22T09:00:58;100419.28;;;17.00;49.99
64158;BME280;50449;51.528;5.076;2023-04-22T09:03:25;100423.84;;;17.04;49.91
64158;BME280;50449;51.528;5.076;2023-04-22T09:05:51;100433.88;;;17.09;49.98
64158;BME280;50449;51.528;5.076;2023-04-22T09:08:18;100437.34;;;17.15;50.50
64158;BME280;50449;51.528;5.076;2023-04-22T09:10:44;100432.94;;;17.19;50.33
64158;BME280;50449;51.528;5.076;2023-04-22T09:13:09;100428.50;;;17.23;50.08
64158;BME280;50449;51.528;5.076;2023-04-22T09:15:36;100442.88;;;17.28;50.09
64158;BME280;50449;51.528;5.076;2023-04-22T09:18:02;100445.53;;;17.34;50.32
64158;BME280;50449;51.528;5.076;2023-04-22T09:20:28;100444.66;;;17.38;50.02
64158;BME280;50449;51.528;5.076;2023-04-22T09:22:56;100443.78;;;17.43;50.53
64158;BME280;50449;51.528;5.076;2023-04-22T09:25:23;100439.34;;;17.47;50.56
64158;BME280;50449;51.528;5.076;2023-04-22T09:27:50;100436.53;;;17.52;50.56
64158;BME280;50449;51.528;5.076;2023-04-22T09:30:18;100431.00;;;17.57;50.49
64158;BME280;50449;51.528;5.076;2023-04-22T09:33:00;100430.41;;;17.60;50.53
64158;BME280;50449;51.528;5.076;2023-04-22T09:35:38;100436.59;;;17.66;50.80
64158;BME280;50449;51.528;5.076;2023-04-22T09:38:06;100443.09;;;17.70;50.29
64158;BME280;50449;51.528;5.076;2023-04-22T09:40:36;100450.41;;;17.74;50.42
64158;BME280;50449;51.528;5.076;2023-04-22T09:43:06;100460.16;;;17.81;50.18
64158;BME280;50449;51.528;5.076;2023-04-22T09:48:02;100452.09;;;17.89;50.80
64158;BME280;50449;51.528;5.076;2023-04-22T09:50:28;100452.81;;;17.95;50.81
64158;BME280;50449;51.528;5.076;2023-04-22T09:52:59;100448.34;;;17.99;50.44
64158;BME280;50449;51.528;5.076;2023-04-22T09:55:27;100447.47;;;18.04;50.59
64158;BME280;50449;51.528;5.076;2023-04-22T09:57:54;100450.09;;;18.09;50.59
64158;BME280;50449;51.528;5.076;2023-04-22T10:00:25;100451.16;;;18.13;50.58
64158;BME280;50449;51.528;5.076;2023-04-22T10:02:51;100442.03;;;18.17;50.64
64158;BME280;50449;51.528;5.076;2023-04-22T10:05:17;100438.41;;;18.22;50.55
64158;BME280;50449;51.528;5.076;2023-04-22T10:07:43;100440.22;;;18.27;51.16
64158;BME280;50449;51.528;5.076;2023-04-22T10:10:09;100450.25;;;18.31;50.97
64158;BME280;50449;51.528;5.076;2023-04-22T10:12:35;100454.03;;;18.35;50.63
64158;BME280;50449;51.528;5.076;2023-04-22T10:15:04;100457.47;;;18.41;50.93
64158;BME280;50449;51.528;5.076;2023-04-22T10:17:36;100450.28;;;18.45;50.75
64158;BME280;50449;51.528;5.076;2023-04-22T10:20:05;100447.75;;;18.49;51.08
64158;BME280;50449;51.528;5.076;2023-04-22T10:22:33;100441.38;;;18.53;51.16
64158;BME280;50449;51.528;5.076;2023-04-22T10:24:58;100444.00;;;18.58;50.73
64158;BME280;50449;51.528;5.076;2023-04-22T10:27:24;100443.91;;;18.64;51.01
64158;BME280;50449;51.528;5.076;2023-04-22T10:29:49;100436.72;;;18.68;50.86
64158;BME280;50449;51.528;5.076;2023-04-22T10:34:45;100423.44;;;18.75;50.95
64158;BME280;50449;51.528;5.076;2023-04-22T10:37:12;100422.53;;;18.79;51.20
64158;BME280;50449;51.528;5.076;2023-04-22T10:39:40;100435.31;;;18.84;51.17
64158;BME280;50449;51.528;5.076;2023-04-22T10:42:11;100435.53;;;18.88;50.73
64158;BME280;50449;51.528;5.076;2023-04-22T10:44:53;100431.38;;;18.90;50.76
64158;BME280;50449;51.528;5.076;2023-04-22T10:47:31;100440.91;;;18.93;50.98
64158;BME280;50449;51.528;5.076;2023-04-22T10:50:22;100449.28;;;18.96;50.93
64158;BME280;50449;51.528;5.076;2023-04-22T10:53:01;100459.94;;;18.98;51.08
64158;BME280;50449;51.528;5.076;2023-04-22T10:55:50;100470.78;;;19.03;51.30
64158;BME280;50449;51.528;5.076;2023-04-22T10:58:20;100470.97;;;19.07;50.99
64158;BME280;50449;51.528;5.076;2023-04-22T11:00:46;100484.38;;;19.08;51.05
64158;BME280;50449;51.528;5.076;2023-04-22T11:03:17;100476.34;;;19.12;51.53
64158;BME280;50449;51.528;5.076;2023-04-22T11:05:43;100472.19;;;19.14;51.32
64158;BME280;50449;51.528;5.076;2023-04-22T11:08:19;100479.78;;;19.17;51.35
64158;BME280;50449;51.528;5.076;2023-04-22T11:10:48;100465.16;;;19.22;51.16
64158;BME280;50449;51.528;5.076;2023-04-22T11:13:16;100466.47;;;19.24;51.58
64158;BME280;50449;51.528;5.076;2023-04-22T11:15:44;100459.56;;;19.27;51.50
64158;BME280;50449;51.528;5.076;2023-04-22T11:18:15;100464.44;;;19.30;51.01
64158;BME280;50449;51.528;5.076;2023-04-22T11:20:41;100460.59;;;19.31;51.41
64158;BME280;50449;51.528;5.076;2023-04-22T11:23:06;100463.84;;;19.33;51.56
64158;BME280;50449;51.528;5.076;2023-04-22T11:25:32;100478.84;;;19.36;51.20
64158;BME280;50449;51.528;5.076;2023-04-22T11:27:57;100476.59;;;19.38;51.39
64158;BME280;50449;51.528;5.076;2023-04-22T11:30:24;100479.81;;;19.40;51.56
64158;BME280;50449;51.528;5.076;2023-04-22T11:32:51;100488.56;;;19.42;51.06
64158;BME280;50449;51.528;5.076;2023-04-22T11:37:50;100493.41;;;19.45;51.18
64158;BME280;50449;51.528;5.076;2023-04-22T11:40:17;100496.66;;;19.47;50.93
64158;BME280;50449;51.528;5.076;2023-04-22T11:42:43;100497.47;;;19.48;51.02
64158;BME280;50449;51.528;5.076;2023-04-22T11:45:12;100495.22;;;19.50;51.48
64158;BME280;50449;51.528;5.076;2023-04-22T11:47:38;100493.28;;;19.50;51.22
64158;BME280;50449;51.528;5.076;2023-04-22T11:50:06;100478.50;;;19.51;50.91
64158;BME280;50449;51.528;5.076;2023-04-22T11:55:27;100471.59;;;19.54;51.04
64158;BME280;50449;51.528;5.076;2023-04-22T11:57:59;100468.50;;;19.55;50.77
64158;BME280;50449;51.528;5.076;2023-04-22T12:00:31;100463.88;;;19.56;51.38
64158;BME280;50449;51.528;5.076;2023-04-22T12:05:34;100470.66;;;19.58;51.01
64158;BME280;50449;51.528;5.076;2023-04-22T12:08:06;100472.56;;;19.58;50.92
64158;BME280;50449;51.528;5.076;2023-04-22T12:10:32;100469.53;;;19.59;50.65
64158;BME280;50449;51.528;5.076;2023-04-22T12:12:59;100474.72;;;19.61;51.25
64158;BME280;50449;51.528;5.076;2023-04-22T12:15:25;100471.63;;;19.62;50.79
64158;BME280;50449;51.528;5.076;2023-04-22T12:17:50;100480.66;;;19.63;50.97
64158;BME280;50449;51.528;5.076;2023-04-22T12:20:17;100477.94;;;19.63;50.80
64158;BME280;50449;51.528;5.076;2023-04-22T12:22:42;100479.56;;;19.64;50.71
64158;BME280;50449;51.528;5.076;2023-04-22T12:25:08;100475.69;;;19.65;50.81
64158;BME280;50449;51.528;5.076;2023-04-22T12:27:34;100488.28;;;19.66;50.85
64158;BME280;50449;51.528;5.076;2023-04-22T12:30:00;100490.72;;;19.67;51.09
64158;BME280;50449;51.528;5.076;2023-04-22T12:32:26;100489.09;;;19.66;51.25
64158;BME280;50449;51.528;5.076;2023-04-22T12:34:52;100477.34;;;19.66;51.14
64158;BME280;50449;51.528;5.076;2023-04-22T12:37:17;100485.56;;;19.66;50.74
64158;BME280;50449;51.528;5.076;2023-04-22T12:39:44;100484.44;;;19.67;50.81
64158;BME280;50449;51.528;5.076;2023-04-22T12:42:10;100486.88;;;19.69;51.00
64158;BME280;50449;51.528;5.076;2023-04-22T12:44:36;100484.16;;;19.69;51.00
64158;BME280;50449;51.528;5.076;2023-04-22T12:47:02;100492.38;;;19.69;50.74
64158;BME280;50449;51.528;5.076;2023-04-22T12:49:27;100493.47;;;19.67;51.31
64158;BME280;50449;51.528;5.076;2023-04-22T12:51:53;100500.06;;;19.66;50.94
64158;BME280;50449;51.528;5.076;2023-04-22T12:54:19;100501.19;;;19.65;51.03
64158;BME280;50449;51.528;5.076;2023-04-22T12:56:45;100500.88;;;19.67;51.00
64158;BME280;50449;51.528;5.076;2023-04-22T12:59:11;100496.22;;;19.67;50.93